Charyn Airfield

Jump to: basic info | weather | comments

Related pages: nearby airports | nearby navaids

Basic information (top)

Location: lon 43.720001, lat 79.474998
Status: small_airport

Weather (top)

Current conditions for Yining Airport 82nm (151km) E (rec'd 2014/04/27 21:00Z):

ZWYN 272100Z VRB01MPS CAVOK 17/00 Q1009 NOSIG

Airport forecast for Almaty Airport 108nm (200km) W (rec'd 2014/07/23 06:18Z):

TAF TAF UAAA 230500Z 2306/2406 26006MPS 9999 SCT050CB BKN100 TX33/2309Z TN18/2400Z 
      TEMPO 2306/2312 TS 
      TEMPO 2312/2324 VRB16MPS 3000 TSRA SQ BKN030CB BKN100

Latest comments (top)

Name of the airfield: Name is unspecified. [read]

More... (top)

See also NOTAMs and nearby airports and navaids, or visit the Charyn Airfield page at the main OurAirports website..